WFL855P LKPR-LEMD
Flight info
| Callsign | WFL855P |
|---|---|
| Flight time | 2h 46m |
| Altitude | 40000 |
| Route | DOBEN DCT RUDAP P31 DOSEL DCT EBEDA DCT BADVI DCT BERAS DCT OLPIX/N0461F390 DCT EKPEB DCT ATPED DCT GEKBA DCT VAMTU DCT KOLON DCT GANGU DCT PADKO DCT DIVKO DCT NILDU DCT NENDA N975 RAMON/N0461F310 N975 ADUXO |
| Aircraft | A332/H-SDE3GHIJ2J3J5M1RVWXY/LB2D1 |
Departure
| Time | 2026-05-04 12:24 |
|---|---|
| Airport | Václav Havel Airport Prague (LKPR) |
Arrival
| Time | 2026-05-04 15:10 |
|---|---|
| Airport | Adolfo Suárez Madrid–Barajas Airport (LEMD) |
| Time | Latitude | Longitude | Altitude | Speed | Heading |
|---|---|---|---|---|---|
| 2026-05-04 11:58 | 50.10789 | 14.26591 | 1181 ft | 0 kts | 34° |
| 2026-05-04 12:12 | 50.10773 | 14.26573 | 1175 ft | 4 kts | 40° |
| 2026-05-04 12:12 | 50.10756 | 14.26543 | 1175 ft | 2 kts | 64° |
| 2026-05-04 12:13 | 50.10746 | 14.26516 | 1175 ft | 4 kts | 32° |
| 2026-05-04 12:14 | 50.10792 | 14.26372 | 1175 ft | 5 kts | 304° |
| 2026-05-04 12:16 | 50.10796 | 14.26362 | 1175 ft | 4 kts | 304° |
| 2026-05-04 12:17 | 50.10812 | 14.26298 | 1177 ft | 7 kts | 273° |
| 2026-05-04 12:17 | 50.10785 | 14.26235 | 1175 ft | 8 kts | 217° |
| 2026-05-04 12:17 | 50.10732 | 14.26177 | 1177 ft | 10 kts | 214° |
| 2026-05-04 12:17 | 50.10666 | 14.26108 | 1175 ft | 12 kts | 214° |
| 2026-05-04 12:18 | 50.10588 | 14.26029 | 1174 ft | 14 kts | 213° |
| 2026-05-04 12:18 | 50.10516 | 14.25988 | 1188 ft | 9 kts | 172° |
| 2026-05-04 12:18 | 50.10470 | 14.26040 | 1189 ft | 8 kts | 130° |
| 2026-05-04 12:18 | 50.10434 | 14.26113 | 1190 ft | 10 kts | 127° |
| 2026-05-04 12:19 | 50.10377 | 14.26232 | 1193 ft | 17 kts | 127° |
| 2026-05-04 12:19 | 50.10291 | 14.26411 | 1196 ft | 23 kts | 127° |
| 2026-05-04 12:19 | 50.10196 | 14.26608 | 1203 ft | 23 kts | 127° |
| 2026-05-04 12:19 | 50.10101 | 14.26804 | 1203 ft | 22 kts | 127° |
| 2026-05-04 12:20 | 50.10009 | 14.26994 | 1208 ft | 22 kts | 127° |
| 2026-05-04 12:20 | 50.09920 | 14.27183 | 1211 ft | 22 kts | 128° |
| 2026-05-04 12:20 | 50.09818 | 14.27370 | 1209 ft | 23 kts | 135° |
| 2026-05-04 12:20 | 50.09705 | 14.27544 | 1210 ft | 23 kts | 136° |
| 2026-05-04 12:21 | 50.09586 | 14.27722 | 1212 ft | 24 kts | 135° |
| 2026-05-04 12:21 | 50.09473 | 14.27896 | 1218 ft | 22 kts | 135° |
| 2026-05-04 12:21 | 50.09369 | 14.28060 | 1224 ft | 21 kts | 135° |
| 2026-05-04 12:21 | 50.09271 | 14.28212 | 1229 ft | 19 kts | 135° |
| 2026-05-04 12:22 | 50.09176 | 14.28281 | 1241 ft | 9 kts | 188° |
| 2026-05-04 12:22 | 50.09134 | 14.28252 | 1252 ft | 6 kts | 212° |
| 2026-05-04 12:22 | 50.09097 | 14.28160 | 1245 ft | 14 kts | 258° |
| 2026-05-04 12:22 | 50.09109 | 14.28040 | 1249 ft | 7 kts | 301° |
| 2026-05-04 12:23 | 50.09126 | 14.28004 | 1246 ft | 4 kts | 307° |
| 2026-05-04 12:23 | 50.09181 | 14.27890 | 1252 ft | 31 kts | 307° |
| 2026-05-04 12:23 | 50.09462 | 14.27308 | 1220 ft | 104 kts | 306° |
| 2026-05-04 12:23 | 50.10027 | 14.26127 | 1221 ft | 166 kts | 308° |
| 2026-05-04 12:24 | 50.10747 | 14.24636 | 2009 ft | 173 kts | 307° |
| 2026-05-04 12:24 | 50.11470 | 14.23149 | 3040 ft | 172 kts | 306° |
| 2026-05-04 12:24 | 50.12230 | 14.21580 | 3586 ft | 196 kts | 306° |
| 2026-05-04 12:24 | 50.13134 | 14.19702 | 3896 ft | 236 kts | 306° |
| 2026-05-04 12:25 | 50.14171 | 14.17550 | 4457 ft | 256 kts | 306° |
| 2026-05-04 12:25 | 50.15257 | 14.15298 | 5305 ft | 263 kts | 306° |
| 2026-05-04 12:25 | 50.16366 | 14.12998 | 6307 ft | 267 kts | 305° |
| 2026-05-04 12:25 | 50.17443 | 14.10641 | 7329 ft | 267 kts | 298° |
| 2026-05-04 12:26 | 50.18074 | 14.07929 | 8324 ft | 268 kts | 275° |
| 2026-05-04 12:26 | 50.17874 | 14.05072 | 9306 ft | 267 kts | 248° |
| 2026-05-04 12:26 | 50.16863 | 14.02661 | 10254 ft | 270 kts | 225° |
| 2026-05-04 12:26 | 50.15372 | 14.00703 | 10715 ft | 293 kts | 218° |
| 2026-05-04 12:27 | 50.13622 | 13.98833 | 11038 ft | 318 kts | 211° |
| 2026-05-04 12:27 | 50.11489 | 13.97596 | 11467 ft | 339 kts | 192° |
| 2026-05-04 12:27 | 50.09094 | 13.97400 | 12198 ft | 349 kts | 181° |
| 2026-05-04 12:27 | 50.06646 | 13.97520 | 13030 ft | 355 kts | 180° |
| 2026-05-04 12:28 | 50.04165 | 13.97675 | 13872 ft | 359 kts | 180° |
| 2026-05-04 12:28 | 50.01645 | 13.97787 | 14618 ft | 363 kts | 183° |
| 2026-05-04 12:28 | 49.99140 | 13.97334 | 15365 ft | 364 kts | 196° |
| 2026-05-04 12:28 | 49.96763 | 13.95852 | 16105 ft | 365 kts | 211° |
| 2026-05-04 12:29 | 49.94765 | 13.93411 | 16864 ft | 368 kts | 227° |
| 2026-05-04 12:29 | 49.93145 | 13.90304 | 17591 ft | 372 kts | 233° |
| 2026-05-04 12:29 | 49.91633 | 13.87017 | 18297 ft | 377 kts | 234° |
| 2026-05-04 12:29 | 49.90112 | 13.83673 | 18902 ft | 381 kts | 234° |
| 2026-05-04 12:30 | 49.88573 | 13.80308 | 19523 ft | 384 kts | 234° |
| 2026-05-04 12:30 | 49.87012 | 13.76923 | 20147 ft | 388 kts | 234° |
| 2026-05-04 12:30 | 49.85431 | 13.73510 | 20743 ft | 391 kts | 234° |
| 2026-05-04 12:30 | 49.83834 | 13.70075 | 21362 ft | 395 kts | 234° |
| 2026-05-04 12:31 | 49.82218 | 13.66608 | 21931 ft | 399 kts | 234° |
| 2026-05-04 12:31 | 49.80587 | 13.63119 | 22517 ft | 402 kts | 233° |
| 2026-05-04 12:31 | 49.78815 | 13.59766 | 23088 ft | 405 kts | 226° |
| 2026-05-04 12:31 | 49.76697 | 13.56840 | 23606 ft | 410 kts | 217° |
| 2026-05-04 12:32 | 49.74252 | 13.54542 | 24070 ft | 414 kts | 207° |
| 2026-05-04 12:32 | 49.68871 | 13.51146 | 25026 ft | 421 kts | 201° |
| 2026-05-04 12:32 | 49.66099 | 13.49629 | 25497 ft | 424 kts | 201° |
| 2026-05-04 12:33 | 49.63345 | 13.48159 | 25958 ft | 426 kts | 201° |
| 2026-05-04 12:33 | 49.60532 | 13.46653 | 26398 ft | 429 kts | 201° |
| 2026-05-04 12:33 | 49.57702 | 13.45121 | 26853 ft | 432 kts | 201° |
| 2026-05-04 12:33 | 49.54860 | 13.43564 | 27300 ft | 435 kts | 201° |
| 2026-05-04 12:34 | 49.52003 | 13.41986 | 27736 ft | 438 kts | 201° |
| 2026-05-04 12:34 | 49.49129 | 13.40390 | 28178 ft | 441 kts | 202° |
| 2026-05-04 12:34 | 49.46241 | 13.38784 | 28627 ft | 443 kts | 202° |
| 2026-05-04 12:34 | 49.43326 | 13.37163 | 29078 ft | 446 kts | 202° |
| 2026-05-04 12:35 | 49.40400 | 13.35539 | 29477 ft | 449 kts | 202° |
| 2026-05-04 12:35 | 49.37447 | 13.33903 | 29883 ft | 452 kts | 202° |
| 2026-05-04 12:35 | 49.34479 | 13.32261 | 30262 ft | 455 kts | 202° |
| 2026-05-04 12:35 | 49.31493 | 13.30612 | 30629 ft | 457 kts | 202° |
| 2026-05-04 12:36 | 49.28493 | 13.28958 | 31000 ft | 459 kts | 202° |
| 2026-05-04 12:36 | 49.25488 | 13.27284 | 31443 ft | 459 kts | 204° |
| 2026-05-04 12:36 | 49.22582 | 13.25328 | 32009 ft | 454 kts | 207° |
| 2026-05-04 12:36 | 49.19732 | 13.23276 | 32548 ft | 451 kts | 208° |
| 2026-05-04 12:37 | 49.16911 | 13.21188 | 33091 ft | 449 kts | 208° |
| 2026-05-04 12:37 | 49.14109 | 13.19087 | 33574 ft | 447 kts | 209° |
| 2026-05-04 12:37 | 49.11325 | 13.16989 | 34061 ft | 445 kts | 209° |
| 2026-05-04 12:37 | 49.08552 | 13.14904 | 34471 ft | 444 kts | 209° |
| 2026-05-04 12:38 | 49.05782 | 13.12829 | 34852 ft | 443 kts | 209° |
| 2026-05-04 12:38 | 49.03014 | 13.10763 | 35220 ft | 443 kts | 208° |
| 2026-05-04 12:38 | 49.00250 | 13.08705 | 35598 ft | 442 kts | 208° |
| 2026-05-04 12:38 | 48.97489 | 13.06654 | 35967 ft | 441 kts | 208° |
| 2026-05-04 12:39 | 48.94731 | 13.04610 | 36335 ft | 440 kts | 208° |
| 2026-05-04 12:39 | 48.91978 | 13.02573 | 36673 ft | 440 kts | 208° |
| 2026-05-04 12:39 | 48.89220 | 13.00534 | 37007 ft | 440 kts | 208° |
| 2026-05-04 12:39 | 48.86471 | 12.98504 | 37368 ft | 439 kts | 208° |
| 2026-05-04 12:40 | 48.83722 | 12.96476 | 37720 ft | 439 kts | 208° |
| 2026-05-04 12:40 | 48.81906 | 12.95138 | 37947 ft | 439 kts | 208° |
| 2026-05-04 12:40 | 48.79161 | 12.93117 | 38283 ft | 438 kts | 208° |
| 2026-05-04 12:40 | 48.76421 | 12.91096 | 38592 ft | 438 kts | 209° |
| 2026-05-04 12:41 | 48.73786 | 12.88801 | 38831 ft | 436 kts | 215° |
| 2026-05-04 12:41 | 48.71366 | 12.86042 | 39051 ft | 435 kts | 221° |
| 2026-05-04 12:41 | 48.69065 | 12.83059 | 39264 ft | 436 kts | 223° |
| 2026-05-04 12:41 | 48.66811 | 12.79995 | 39451 ft | 436 kts | 223° |
| 2026-05-04 12:42 | 48.64576 | 12.76886 | 39672 ft | 437 kts | 224° |
| 2026-05-04 12:42 | 48.62345 | 12.73758 | 39882 ft | 437 kts | 224° |
| 2026-05-04 12:42 | 48.60107 | 12.70621 | 39953 ft | 440 kts | 224° |
| 2026-05-04 12:43 | 48.55596 | 12.64320 | 39966 ft | 443 kts | 224° |
| 2026-05-04 12:43 | 48.51066 | 12.58031 | 39967 ft | 443 kts | 223° |
| 2026-05-04 12:44 | 48.46517 | 12.51746 | 39970 ft | 443 kts | 223° |
| 2026-05-04 12:44 | 48.41936 | 12.45544 | 39970 ft | 443 kts | 222° |
| 2026-05-04 12:45 | 48.37269 | 12.39570 | 39959 ft | 443 kts | 221° |
| 2026-05-04 12:45 | 48.32513 | 12.33563 | 39963 ft | 444 kts | 221° |
| 2026-05-04 12:46 | 48.27791 | 12.27588 | 39967 ft | 444 kts | 221° |
| 2026-05-04 12:46 | 48.23073 | 12.21610 | 39964 ft | 444 kts | 221° |
| 2026-05-04 12:47 | 48.18304 | 12.15733 | 39969 ft | 444 kts | 216° |
| 2026-05-04 12:47 | 48.12829 | 12.11446 | 39963 ft | 447 kts | 201° |
| 2026-05-04 12:48 | 48.06890 | 12.08645 | 39961 ft | 449 kts | 198° |
| 2026-05-04 12:48 | 48.00868 | 12.06146 | 39944 ft | 449 kts | 197° |
| 2026-05-04 12:49 | 47.94845 | 12.03666 | 39952 ft | 449 kts | 197° |
| 2026-05-04 12:49 | 47.88822 | 12.01146 | 39943 ft | 450 kts | 198° |
| 2026-05-04 12:50 | 47.82803 | 11.98610 | 39944 ft | 449 kts | 198° |
| 2026-05-04 12:50 | 47.76784 | 11.96074 | 39944 ft | 450 kts | 198° |
| 2026-05-04 12:51 | 47.70813 | 11.93492 | 39946 ft | 450 kts | 199° |
| 2026-05-04 12:51 | 47.64853 | 11.90672 | 39944 ft | 449 kts | 200° |
| 2026-05-04 12:52 | 47.58868 | 11.87791 | 39944 ft | 449 kts | 200° |
| 2026-05-04 12:52 | 47.52919 | 11.84954 | 39949 ft | 449 kts | 199° |
| 2026-05-04 12:53 | 47.47005 | 11.82160 | 39952 ft | 449 kts | 199° |
| 2026-05-04 12:53 | 47.41053 | 11.79360 | 39966 ft | 449 kts | 199° |
| 2026-05-04 12:54 | 47.35037 | 11.76870 | 39976 ft | 450 kts | 193° |
| 2026-05-04 12:54 | 47.28857 | 11.75252 | 39972 ft | 451 kts | 191° |
| 2026-05-04 12:55 | 47.22648 | 11.73818 | 39981 ft | 452 kts | 191° |
| 2026-05-04 12:55 | 47.16439 | 11.72404 | 39987 ft | 451 kts | 191° |
| 2026-05-04 12:56 | 47.10247 | 11.70986 | 40011 ft | 450 kts | 191° |
| 2026-05-04 12:56 | 47.04078 | 11.69521 | 40009 ft | 448 kts | 194° |
| 2026-05-04 12:57 | 46.98201 | 11.66652 | 40014 ft | 445 kts | 205° |
| 2026-05-04 12:57 | 46.92530 | 11.62976 | 40026 ft | 447 kts | 206° |
| 2026-05-04 12:58 | 46.86892 | 11.59148 | 40033 ft | 447 kts | 206° |
| 2026-05-04 12:58 | 46.81247 | 11.55334 | 40032 ft | 447 kts | 206° |
| 2026-05-04 12:59 | 46.75588 | 11.51549 | 40042 ft | 447 kts | 206° |
| 2026-05-04 12:59 | 46.70167 | 11.47165 | 40047 ft | 445 kts | 218° |
| 2026-05-04 13:00 | 46.65836 | 11.40913 | 40051 ft | 442 kts | 232° |
| 2026-05-04 13:00 | 46.62104 | 11.33784 | 40048 ft | 443 kts | 234° |
| 2026-05-04 13:01 | 46.58489 | 11.26535 | 40032 ft | 443 kts | 235° |
| 2026-05-04 13:01 | 46.54858 | 11.19306 | 40119 ft | 443 kts | 234° |
| 2026-05-04 13:02 | 46.51199 | 11.12112 | 40127 ft | 442 kts | 234° |
| 2026-05-04 13:02 | 46.47527 | 11.04945 | 40126 ft | 442 kts | 234° |
| 2026-05-04 13:03 | 46.43852 | 10.97792 | 40126 ft | 442 kts | 234° |
| 2026-05-04 13:03 | 46.40172 | 10.90648 | 40190 ft | 442 kts | 234° |
| 2026-05-04 13:04 | 46.36496 | 10.83525 | 40178 ft | 441 kts | 234° |
| 2026-05-04 13:04 | 46.32822 | 10.76425 | 40174 ft | 440 kts | 234° |
| 2026-05-04 13:05 | 46.29146 | 10.69339 | 40170 ft | 440 kts | 234° |
| 2026-05-04 13:05 | 46.25464 | 10.62257 | 40161 ft | 441 kts | 234° |
| 2026-05-04 13:06 | 46.21779 | 10.55190 | 40157 ft | 441 kts | 233° |
| 2026-05-04 13:06 | 46.18088 | 10.48130 | 40155 ft | 440 kts | 233° |
| 2026-05-04 13:07 | 46.14194 | 10.41315 | 40148 ft | 441 kts | 228° |
| 2026-05-04 13:07 | 46.09963 | 10.34913 | 40123 ft | 441 kts | 227° |
| 2026-05-04 13:08 | 46.05668 | 10.28602 | 40127 ft | 441 kts | 226° |
| 2026-05-04 13:08 | 46.01358 | 10.22300 | 40119 ft | 442 kts | 226° |
| 2026-05-04 13:09 | 45.97043 | 10.15987 | 40105 ft | 442 kts | 226° |
| 2026-05-04 13:09 | 45.92735 | 10.09687 | 40094 ft | 442 kts | 226° |
| 2026-05-04 13:10 | 45.88421 | 10.03390 | 40094 ft | 442 kts | 226° |
| 2026-05-04 13:10 | 45.84104 | 9.97102 | 40091 ft | 442 kts | 226° |
| 2026-05-04 13:11 | 45.79781 | 9.90823 | 40089 ft | 442 kts | 226° |
| 2026-05-04 13:11 | 45.75458 | 9.84559 | 40098 ft | 442 kts | 226° |
| 2026-05-04 13:12 | 45.71135 | 9.78309 | 40083 ft | 441 kts | 226° |
| 2026-05-04 13:12 | 45.66816 | 9.72081 | 40102 ft | 440 kts | 226° |
| 2026-05-04 13:13 | 45.62498 | 9.65868 | 40102 ft | 441 kts | 226° |
| 2026-05-04 13:13 | 45.58178 | 9.59664 | 40211 ft | 441 kts | 226° |
| 2026-05-04 13:14 | 45.53880 | 9.53509 | 40209 ft | 441 kts | 226° |
| 2026-05-04 13:14 | 45.49554 | 9.47326 | 40211 ft | 440 kts | 226° |
| 2026-05-04 13:15 | 45.45224 | 9.41153 | 40198 ft | 440 kts | 226° |
| 2026-05-04 13:15 | 45.40893 | 9.34993 | 40102 ft | 440 kts | 226° |
| 2026-05-04 13:16 | 45.36559 | 9.28841 | 40101 ft | 440 kts | 227° |
| 2026-05-04 13:16 | 45.32231 | 9.22713 | 40100 ft | 439 kts | 226° |
| 2026-05-04 13:17 | 45.27901 | 9.16596 | 40099 ft | 439 kts | 226° |
| 2026-05-04 13:17 | 45.23571 | 9.10492 | 40098 ft | 439 kts | 226° |
| 2026-05-04 13:18 | 45.19235 | 9.04395 | 40096 ft | 439 kts | 227° |
| 2026-05-04 13:18 | 45.14936 | 8.98363 | 40124 ft | 438 kts | 226° |
| 2026-05-04 13:19 | 45.10577 | 8.92260 | 40130 ft | 438 kts | 226° |
| 2026-05-04 13:19 | 45.06243 | 8.86206 | 40130 ft | 438 kts | 226° |
| 2026-05-04 13:20 | 45.01905 | 8.80161 | 40129 ft | 437 kts | 226° |
| 2026-05-04 13:20 | 44.97611 | 8.74191 | 40097 ft | 435 kts | 226° |
| 2026-05-04 13:21 | 44.93296 | 8.68203 | 40097 ft | 435 kts | 226° |
| 2026-05-04 13:21 | 44.88947 | 8.62182 | 40100 ft | 435 kts | 226° |
| 2026-05-04 13:22 | 44.84654 | 8.56252 | 40092 ft | 434 kts | 226° |
| 2026-05-04 13:22 | 44.80346 | 8.50316 | 40101 ft | 433 kts | 226° |
| 2026-05-04 13:23 | 44.76043 | 8.44398 | 40098 ft | 432 kts | 226° |
| 2026-05-04 13:23 | 44.71735 | 8.38486 | 40097 ft | 433 kts | 226° |
| 2026-05-04 13:24 | 44.67426 | 8.32586 | 40103 ft | 432 kts | 226° |
| 2026-05-04 13:24 | 44.63136 | 8.26727 | 40100 ft | 428 kts | 226° |
| 2026-05-04 13:25 | 44.56733 | 8.18003 | 40096 ft | 427 kts | 226° |
| 2026-05-04 13:25 | 44.52464 | 8.12200 | 40101 ft | 428 kts | 226° |
| 2026-05-04 13:26 | 44.48187 | 8.06401 | 40103 ft | 428 kts | 226° |
| 2026-05-04 13:26 | 44.43909 | 8.00613 | 40108 ft | 428 kts | 226° |
| 2026-05-04 13:27 | 44.40351 | 7.95808 | 40119 ft | 428 kts | 226° |
| 2026-05-04 13:27 | 44.36064 | 7.90030 | 40111 ft | 428 kts | 226° |
| 2026-05-04 13:28 | 44.31777 | 7.84265 | 40111 ft | 428 kts | 226° |
| 2026-05-04 13:28 | 44.27478 | 7.78501 | 40103 ft | 428 kts | 226° |
| 2026-05-04 13:29 | 44.23069 | 7.72905 | 40107 ft | 429 kts | 224° |
| 2026-05-04 13:29 | 44.18583 | 7.67422 | 40104 ft | 429 kts | 224° |
| 2026-05-04 13:30 | 44.14210 | 7.61796 | 40100 ft | 426 kts | 229° |
| 2026-05-04 13:30 | 44.10244 | 7.55680 | 40097 ft | 425 kts | 230° |
| 2026-05-04 13:31 | 44.06370 | 7.49483 | 40093 ft | 424 kts | 231° |
| 2026-05-04 13:31 | 44.02514 | 7.43290 | 40092 ft | 424 kts | 231° |
| 2026-05-04 13:32 | 43.98669 | 7.37148 | 40080 ft | 424 kts | 231° |
| 2026-05-04 13:32 | 43.94768 | 7.30945 | 40084 ft | 422 kts | 231° |
| 2026-05-04 13:33 | 43.90933 | 7.24867 | 40077 ft | 421 kts | 231° |
| 2026-05-04 13:33 | 43.87075 | 7.18762 | 40076 ft | 421 kts | 231° |
| 2026-05-04 13:34 | 43.83212 | 7.12662 | 40074 ft | 421 kts | 231° |
| 2026-05-04 13:34 | 43.79352 | 7.06580 | 40068 ft | 420 kts | 231° |
| 2026-05-04 13:35 | 43.73639 | 6.97418 | 40078 ft | 417 kts | 235° |
| 2026-05-04 13:36 | 43.70793 | 6.90481 | 40073 ft | 415 kts | 246° |
| 2026-05-04 13:36 | 43.68534 | 6.83136 | 40077 ft | 416 kts | 248° |
| 2026-05-04 13:37 | 43.66381 | 6.75716 | 40063 ft | 416 kts | 248° |
| 2026-05-04 13:37 | 43.64222 | 6.68307 | 40055 ft | 416 kts | 248° |
| 2026-05-04 13:38 | 43.62042 | 6.60921 | 40054 ft | 415 kts | 247° |
| 2026-05-04 13:38 | 43.59852 | 6.53561 | 40048 ft | 414 kts | 247° |
| 2026-05-04 13:39 | 43.57658 | 6.46217 | 40072 ft | 414 kts | 247° |
| 2026-05-04 13:39 | 43.55460 | 6.38873 | 40049 ft | 414 kts | 247° |
| 2026-05-04 13:40 | 43.53272 | 6.31584 | 40043 ft | 414 kts | 247° |
| 2026-05-04 13:40 | 43.51063 | 6.24244 | 40047 ft | 414 kts | 247° |
| 2026-05-04 13:41 | 43.48850 | 6.16914 | 40044 ft | 414 kts | 247° |
| 2026-05-04 13:41 | 43.46634 | 6.09591 | 40023 ft | 414 kts | 247° |
| 2026-05-04 13:42 | 43.43309 | 5.98645 | 40034 ft | 412 kts | 246° |
| 2026-05-04 13:42 | 43.41093 | 5.91376 | 40021 ft | 412 kts | 246° |
| 2026-05-04 13:43 | 43.38872 | 5.84112 | 40020 ft | 412 kts | 246° |
| 2026-05-04 13:43 | 43.36648 | 5.76854 | 40014 ft | 412 kts | 246° |
| 2026-05-04 13:44 | 43.34418 | 5.69601 | 40021 ft | 412 kts | 246° |
| 2026-05-04 13:44 | 43.32184 | 5.62355 | 40012 ft | 412 kts | 246° |
| 2026-05-04 13:45 | 43.29943 | 5.55104 | 40011 ft | 413 kts | 246° |
| 2026-05-04 13:45 | 43.27695 | 5.47852 | 40008 ft | 412 kts | 246° |
| 2026-05-04 13:46 | 43.25451 | 5.40630 | 40011 ft | 411 kts | 246° |
| 2026-05-04 13:46 | 43.23203 | 5.33419 | 40012 ft | 411 kts | 246° |
| 2026-05-04 13:47 | 43.20951 | 5.26214 | 40007 ft | 411 kts | 246° |
| 2026-05-04 13:47 | 43.18696 | 5.19019 | 40001 ft | 411 kts | 246° |
| 2026-05-04 13:48 | 43.16436 | 5.11831 | 39997 ft | 411 kts | 246° |
| 2026-05-04 13:48 | 43.14174 | 5.04653 | 39992 ft | 411 kts | 246° |
| 2026-05-04 13:49 | 43.11905 | 4.97476 | 39970 ft | 411 kts | 245° |
| 2026-05-04 13:49 | 43.09652 | 4.90367 | 39981 ft | 409 kts | 245° |
| 2026-05-04 13:50 | 43.07373 | 4.83232 | 39971 ft | 409 kts | 243° |
| 2026-05-04 13:50 | 43.04369 | 4.76670 | 39969 ft | 408 kts | 231° |
| 2026-05-04 13:51 | 43.00348 | 4.71184 | 39960 ft | 410 kts | 224° |
| 2026-05-04 13:51 | 42.96076 | 4.66017 | 39960 ft | 410 kts | 223° |
| 2026-05-04 13:52 | 42.89624 | 4.58349 | 39957 ft | 410 kts | 223° |
| 2026-05-04 13:53 | 42.85339 | 4.53215 | 39950 ft | 410 kts | 223° |
| 2026-05-04 13:53 | 42.81051 | 4.48067 | 39948 ft | 411 kts | 223° |
| 2026-05-04 13:54 | 42.74608 | 4.40347 | 39941 ft | 411 kts | 223° |
| 2026-05-04 13:55 | 42.68156 | 4.32641 | 39941 ft | 412 kts | 223° |
| 2026-05-04 13:55 | 42.61697 | 4.24949 | 39933 ft | 411 kts | 223° |
| 2026-05-04 13:56 | 42.57391 | 4.19835 | 39936 ft | 411 kts | 223° |
| 2026-05-04 13:57 | 42.50911 | 4.12153 | 39932 ft | 414 kts | 223° |
| 2026-05-04 13:58 | 42.42230 | 4.01901 | 39930 ft | 414 kts | 223° |
| 2026-05-04 13:58 | 42.35722 | 3.94238 | 39930 ft | 414 kts | 223° |
| 2026-05-04 13:59 | 42.31379 | 3.89138 | 39923 ft | 414 kts | 223° |
| 2026-05-04 14:00 | 42.25192 | 3.81065 | 39937 ft | 412 kts | 232° |
| 2026-05-04 14:00 | 42.20093 | 3.71703 | 39930 ft | 414 kts | 235° |
| 2026-05-04 14:01 | 42.16775 | 3.65349 | 39928 ft | 415 kts | 235° |
| 2026-05-04 14:02 | 42.11797 | 3.55882 | 39928 ft | 414 kts | 235° |
| 2026-05-04 14:02 | 42.08431 | 3.49531 | 39922 ft | 414 kts | 235° |
| 2026-05-04 14:03 | 42.05082 | 3.43232 | 39924 ft | 414 kts | 235° |
| 2026-05-04 14:03 | 42.01753 | 3.36981 | 39923 ft | 414 kts | 235° |
| 2026-05-04 14:04 | 41.96722 | 3.27559 | 39916 ft | 414 kts | 234° |
| 2026-05-04 14:04 | 41.93362 | 3.21283 | 39901 ft | 413 kts | 234° |
| 2026-05-04 14:05 | 41.88343 | 3.11930 | 39918 ft | 410 kts | 234° |
| 2026-05-04 14:06 | 41.85001 | 3.05721 | 39917 ft | 410 kts | 234° |
| 2026-05-04 14:06 | 41.81660 | 2.99524 | 39918 ft | 410 kts | 234° |
| 2026-05-04 14:07 | 41.78319 | 2.93340 | 39918 ft | 409 kts | 234° |
| 2026-05-04 14:07 | 41.74974 | 2.87161 | 39918 ft | 410 kts | 234° |
| 2026-05-04 14:08 | 41.71626 | 2.80988 | 39931 ft | 409 kts | 234° |
| 2026-05-04 14:08 | 41.68276 | 2.74847 | 39931 ft | 408 kts | 234° |
| 2026-05-04 14:09 | 41.63077 | 2.65831 | 39938 ft | 408 kts | 232° |
| 2026-05-04 14:10 | 41.57831 | 2.56887 | 39930 ft | 407 kts | 232° |
| 2026-05-04 14:10 | 41.54340 | 2.50922 | 39942 ft | 407 kts | 232° |
| 2026-05-04 14:11 | 41.50878 | 2.45007 | 39945 ft | 407 kts | 232° |
| 2026-05-04 14:11 | 41.45636 | 2.36072 | 39941 ft | 405 kts | 232° |
| 2026-05-04 14:12 | 41.42183 | 2.30199 | 39949 ft | 405 kts | 232° |
| 2026-05-04 14:13 | 41.36949 | 2.21322 | 39962 ft | 407 kts | 232° |
| 2026-05-04 14:13 | 41.33481 | 2.15354 | 39967 ft | 408 kts | 236° |
| 2026-05-04 14:14 | 41.30863 | 2.08695 | 39963 ft | 408 kts | 249° |
| 2026-05-04 14:14 | 41.29261 | 1.98873 | 39967 ft | 410 kts | 258° |
| 2026-05-04 14:15 | 41.27599 | 1.83841 | 39936 ft | 412 kts | 258° |
| 2026-05-04 14:16 | 41.26295 | 1.72522 | 39936 ft | 413 kts | 258° |
| 2026-05-04 14:17 | 41.24962 | 1.61199 | 39930 ft | 413 kts | 258° |
| 2026-05-04 14:18 | 41.23620 | 1.49882 | 39935 ft | 414 kts | 258° |
| 2026-05-04 14:19 | 41.21808 | 1.34739 | 39933 ft | 416 kts | 258° |
| 2026-05-04 14:19 | 41.20893 | 1.27158 | 39938 ft | 416 kts | 258° |
| 2026-05-04 14:20 | 41.19973 | 1.19581 | 39938 ft | 416 kts | 258° |
| 2026-05-04 14:20 | 41.19048 | 1.12006 | 39946 ft | 416 kts | 258° |
| 2026-05-04 14:21 | 41.17647 | 1.00641 | 39935 ft | 419 kts | 258° |
| 2026-05-04 14:21 | 41.16701 | 0.93016 | 39909 ft | 419 kts | 258° |
| 2026-05-04 14:22 | 41.15751 | 0.85395 | 39904 ft | 419 kts | 258° |
| 2026-05-04 14:22 | 41.14797 | 0.77783 | 39906 ft | 418 kts | 257° |
| 2026-05-04 14:23 | 41.13353 | 0.66344 | 39896 ft | 420 kts | 258° |
| 2026-05-04 14:24 | 41.12386 | 0.58712 | 39898 ft | 419 kts | 258° |
| 2026-05-04 14:24 | 41.11418 | 0.51095 | 39894 ft | 419 kts | 258° |
| 2026-05-04 14:25 | 41.10444 | 0.43488 | 39890 ft | 419 kts | 257° |
| 2026-05-04 14:25 | 41.08967 | 0.32079 | 39890 ft | 418 kts | 257° |
| 2026-05-04 14:26 | 41.07978 | 0.24487 | 39887 ft | 418 kts | 257° |
| 2026-05-04 14:26 | 41.06985 | 0.16904 | 39891 ft | 418 kts | 257° |
| 2026-05-04 14:27 | 41.05986 | 0.09321 | 39895 ft | 418 kts | 257° |
| 2026-05-04 14:27 | 41.04983 | 0.01743 | 39891 ft | 417 kts | 257° |
| 2026-05-04 14:28 | 41.03973 | -0.05838 | 39892 ft | 418 kts | 257° |
| 2026-05-04 14:28 | 41.02956 | -0.13438 | 39888 ft | 420 kts | 257° |
| 2026-05-04 14:29 | 41.00767 | -0.28616 | 39888 ft | 418 kts | 251° |
| 2026-05-04 14:30 | 40.98955 | -0.35912 | 39896 ft | 417 kts | 249° |
| 2026-05-04 14:31 | 40.96029 | -0.46709 | 39898 ft | 417 kts | 249° |
| 2026-05-04 14:32 | 40.92077 | -0.61148 | 39897 ft | 417 kts | 249° |
| 2026-05-04 14:32 | 40.90106 | -0.68361 | 39897 ft | 417 kts | 249° |
| 2026-05-04 14:33 | 40.88133 | -0.75565 | 39903 ft | 416 kts | 249° |
| 2026-05-04 14:33 | 40.86156 | -0.82755 | 39690 ft | 416 kts | 249° |
| 2026-05-04 14:33 | 40.85173 | -0.86318 | 39547 ft | 409 kts | 249° |
| 2026-05-04 14:34 | 40.84210 | -0.89803 | 39447 ft | 399 kts | 249° |
| 2026-05-04 14:34 | 40.83269 | -0.93204 | 39307 ft | 391 kts | 249° |
| 2026-05-04 14:34 | 40.82337 | -0.96564 | 38908 ft | 390 kts | 248° |
| 2026-05-04 14:34 | 40.81404 | -0.99922 | 38485 ft | 389 kts | 248° |
| 2026-05-04 14:35 | 40.80474 | -1.03267 | 38040 ft | 386 kts | 248° |
| 2026-05-04 14:35 | 40.79552 | -1.06578 | 37673 ft | 383 kts | 248° |
| 2026-05-04 14:35 | 40.78636 | -1.09866 | 37294 ft | 381 kts | 248° |
| 2026-05-04 14:35 | 40.77721 | -1.13144 | 36919 ft | 381 kts | 248° |
| 2026-05-04 14:36 | 40.76805 | -1.16421 | 36551 ft | 381 kts | 248° |
| 2026-05-04 14:36 | 40.75884 | -1.19714 | 36146 ft | 383 kts | 248° |
| 2026-05-04 14:36 | 40.74962 | -1.23005 | 35764 ft | 383 kts | 248° |
| 2026-05-04 14:36 | 40.74038 | -1.26301 | 35362 ft | 383 kts | 248° |
| 2026-05-04 14:37 | 40.73126 | -1.29550 | 34947 ft | 382 kts | 248° |
| 2026-05-04 14:37 | 40.72193 | -1.32872 | 34515 ft | 381 kts | 248° |
| 2026-05-04 14:37 | 40.71273 | -1.36144 | 33981 ft | 381 kts | 247° |
| 2026-05-04 14:37 | 40.70361 | -1.39382 | 33257 ft | 382 kts | 247° |
| 2026-05-04 14:38 | 40.69435 | -1.42669 | 32603 ft | 382 kts | 247° |
| 2026-05-04 14:38 | 40.68510 | -1.45945 | 31952 ft | 382 kts | 247° |
| 2026-05-04 14:38 | 40.67582 | -1.49232 | 31282 ft | 384 kts | 247° |
| 2026-05-04 14:38 | 40.66648 | -1.52531 | 30578 ft | 385 kts | 247° |
| 2026-05-04 14:39 | 40.65711 | -1.55839 | 29986 ft | 384 kts | 248° |
| 2026-05-04 14:39 | 40.64782 | -1.59117 | 29470 ft | 381 kts | 248° |
| 2026-05-04 14:39 | 40.63856 | -1.62379 | 28994 ft | 379 kts | 248° |
| 2026-05-04 14:40 | 40.62016 | -1.68847 | 28020 ft | 375 kts | 248° |
| 2026-05-04 14:40 | 40.61101 | -1.72057 | 27537 ft | 374 kts | 248° |
| 2026-05-04 14:40 | 40.60189 | -1.75253 | 27053 ft | 372 kts | 248° |
| 2026-05-04 14:40 | 40.59280 | -1.78434 | 26566 ft | 371 kts | 248° |
| 2026-05-04 14:41 | 40.58373 | -1.81603 | 26073 ft | 369 kts | 248° |
| 2026-05-04 14:41 | 40.57470 | -1.84756 | 25597 ft | 368 kts | 248° |
| 2026-05-04 14:41 | 40.55668 | -1.91034 | 24634 ft | 366 kts | 248° |
| 2026-05-04 14:42 | 40.53876 | -1.97263 | 23635 ft | 363 kts | 249° |
| 2026-05-04 14:42 | 40.52988 | -2.00347 | 23226 ft | 356 kts | 249° |
| 2026-05-04 14:42 | 40.52127 | -2.03330 | 23135 ft | 342 kts | 249° |
| 2026-05-04 14:43 | 40.51302 | -2.06188 | 23034 ft | 328 kts | 249° |
| 2026-05-04 14:43 | 40.50504 | -2.08942 | 22892 ft | 317 kts | 249° |
| 2026-05-04 14:43 | 40.49734 | -2.11600 | 22758 ft | 306 kts | 249° |
| 2026-05-04 14:43 | 40.48987 | -2.14175 | 22616 ft | 297 kts | 249° |
| 2026-05-04 14:44 | 40.48261 | -2.16675 | 22487 ft | 289 kts | 249° |
| 2026-05-04 14:44 | 40.47550 | -2.19120 | 22368 ft | 286 kts | 249° |
| 2026-05-04 14:44 | 40.46837 | -2.21568 | 22051 ft | 288 kts | 249° |
| 2026-05-04 14:44 | 40.46121 | -2.24019 | 21740 ft | 287 kts | 249° |
| 2026-05-04 14:45 | 40.45412 | -2.26463 | 21447 ft | 285 kts | 249° |
| 2026-05-04 14:45 | 40.44890 | -2.28965 | 21163 ft | 284 kts | 260° |
| 2026-05-04 14:45 | 40.44887 | -2.31549 | 20870 ft | 285 kts | 277° |
| 2026-05-04 14:45 | 40.45490 | -2.34034 | 20572 ft | 288 kts | 291° |
| 2026-05-04 14:46 | 40.46424 | -2.36371 | 20260 ft | 290 kts | 295° |
| 2026-05-04 14:46 | 40.47420 | -2.38674 | 19969 ft | 290 kts | 295° |
| 2026-05-04 14:46 | 40.48416 | -2.40965 | 19688 ft | 289 kts | 295° |
| 2026-05-04 14:46 | 40.49404 | -2.43256 | 19379 ft | 287 kts | 295° |
| 2026-05-04 14:47 | 40.50382 | -2.45540 | 19073 ft | 286 kts | 295° |
| 2026-05-04 14:47 | 40.51353 | -2.47817 | 18774 ft | 285 kts | 295° |
| 2026-05-04 14:47 | 40.52317 | -2.50085 | 18475 ft | 284 kts | 295° |
| 2026-05-04 14:47 | 40.53277 | -2.52346 | 18175 ft | 283 kts | 295° |
| 2026-05-04 14:48 | 40.54231 | -2.54597 | 17859 ft | 281 kts | 295° |
| 2026-05-04 14:48 | 40.55181 | -2.56840 | 17571 ft | 281 kts | 295° |
| 2026-05-04 14:48 | 40.56128 | -2.59080 | 17275 ft | 280 kts | 295° |
| 2026-05-04 14:48 | 40.57071 | -2.61312 | 16981 ft | 279 kts | 295° |
| 2026-05-04 14:49 | 40.58009 | -2.63535 | 16687 ft | 278 kts | 295° |
| 2026-05-04 14:49 | 40.58945 | -2.65754 | 16395 ft | 277 kts | 295° |
| 2026-05-04 14:49 | 40.59873 | -2.67953 | 16219 ft | 270 kts | 295° |
| 2026-05-04 14:49 | 40.60770 | -2.70076 | 16129 ft | 261 kts | 295° |
| 2026-05-04 14:50 | 40.61635 | -2.72130 | 16009 ft | 253 kts | 295° |
| 2026-05-04 14:50 | 40.62479 | -2.74133 | 15897 ft | 247 kts | 295° |
| 2026-05-04 14:50 | 40.63307 | -2.76106 | 15633 ft | 246 kts | 295° |
| 2026-05-04 14:50 | 40.64133 | -2.78076 | 15398 ft | 245 kts | 295° |
| 2026-05-04 14:51 | 40.64946 | -2.80016 | 15176 ft | 245 kts | 295° |
| 2026-05-04 14:51 | 40.65792 | -2.81964 | 14932 ft | 245 kts | 296° |
| 2026-05-04 14:51 | 40.66667 | -2.83885 | 14707 ft | 244 kts | 297° |
| 2026-05-04 14:51 | 40.67547 | -2.85794 | 14469 ft | 243 kts | 297° |
| 2026-05-04 14:52 | 40.68426 | -2.87700 | 14238 ft | 244 kts | 297° |
| 2026-05-04 14:52 | 40.69305 | -2.89606 | 14001 ft | 244 kts | 297° |
| 2026-05-04 14:52 | 40.70185 | -2.91514 | 13763 ft | 243 kts | 297° |
| 2026-05-04 14:52 | 40.71063 | -2.93416 | 13532 ft | 242 kts | 297° |
| 2026-05-04 14:53 | 40.71930 | -2.95298 | 13310 ft | 240 kts | 297° |
| 2026-05-04 14:53 | 40.72794 | -2.97172 | 13077 ft | 238 kts | 297° |
| 2026-05-04 14:53 | 40.73652 | -2.99035 | 12839 ft | 237 kts | 297° |
| 2026-05-04 14:53 | 40.74506 | -3.00894 | 12620 ft | 236 kts | 297° |
| 2026-05-04 14:54 | 40.75355 | -3.02741 | 12374 ft | 235 kts | 297° |
| 2026-05-04 14:54 | 40.76202 | -3.04584 | 12145 ft | 235 kts | 297° |
| 2026-05-04 14:54 | 40.77045 | -3.06422 | 11927 ft | 234 kts | 298° |
| 2026-05-04 14:54 | 40.77890 | -3.08262 | 11682 ft | 234 kts | 298° |
| 2026-05-04 14:55 | 40.78733 | -3.10102 | 11449 ft | 234 kts | 298° |
| 2026-05-04 14:55 | 40.79576 | -3.11939 | 11220 ft | 234 kts | 298° |
| 2026-05-04 14:55 | 40.80418 | -3.13778 | 10981 ft | 234 kts | 297° |
| 2026-05-04 14:55 | 40.81260 | -3.15619 | 10740 ft | 234 kts | 297° |
| 2026-05-04 14:56 | 40.82101 | -3.17459 | 10524 ft | 234 kts | 297° |
| 2026-05-04 14:56 | 40.82940 | -3.19293 | 10279 ft | 233 kts | 297° |
| 2026-05-04 14:56 | 40.83778 | -3.21126 | 10049 ft | 233 kts | 298° |
| 2026-05-04 14:56 | 40.84614 | -3.22957 | 9810 ft | 233 kts | 298° |
| 2026-05-04 14:57 | 40.85449 | -3.24786 | 9560 ft | 232 kts | 298° |
| 2026-05-04 14:57 | 40.86279 | -3.26600 | 9326 ft | 230 kts | 298° |
| 2026-05-04 14:57 | 40.87102 | -3.28402 | 9123 ft | 229 kts | 298° |
| 2026-05-04 14:57 | 40.87923 | -3.30202 | 8873 ft | 228 kts | 298° |
| 2026-05-04 14:58 | 40.88743 | -3.31996 | 8640 ft | 228 kts | 299° |
| 2026-05-04 14:58 | 40.89560 | -3.33787 | 8414 ft | 227 kts | 299° |
| 2026-05-04 14:58 | 40.90377 | -3.35580 | 8181 ft | 227 kts | 299° |
| 2026-05-04 14:58 | 40.90912 | -3.36769 | 8043 ft | 227 kts | 297° |
| 2026-05-04 14:59 | 40.91652 | -3.39356 | 7715 ft | 232 kts | 283° |
| 2026-05-04 14:59 | 40.92008 | -3.41448 | 7456 ft | 234 kts | 281° |
| 2026-05-04 14:59 | 40.92442 | -3.45711 | 6957 ft | 235 kts | 266° |
| 2026-05-04 15:00 | 40.92230 | -3.47842 | 6757 ft | 230 kts | 261° |
| 2026-05-04 15:00 | 40.91922 | -3.49867 | 6600 ft | 220 kts | 255° |
| 2026-05-04 15:00 | 40.91190 | -3.51591 | 6411 ft | 216 kts | 227° |
| 2026-05-04 15:01 | 40.88623 | -3.53529 | 6136 ft | 206 kts | 208° |
| 2026-05-04 15:01 | 40.87334 | -3.54269 | 6017 ft | 200 kts | 204° |
| 2026-05-04 15:01 | 40.85988 | -3.54757 | 5928 ft | 201 kts | 195° |
| 2026-05-04 15:01 | 40.84608 | -3.55085 | 5778 ft | 202 kts | 193° |
| 2026-05-04 15:02 | 40.83688 | -3.55285 | 5717 ft | 202 kts | 193° |
| 2026-05-04 15:02 | 40.82321 | -3.55654 | 5621 ft | 199 kts | 200° |
| 2026-05-04 15:02 | 40.80967 | -3.56072 | 5519 ft | 201 kts | 192° |
| 2026-05-04 15:02 | 40.79563 | -3.56193 | 5496 ft | 203 kts | 185° |
| 2026-05-04 15:03 | 40.78147 | -3.56186 | 5495 ft | 205 kts | 184° |
| 2026-05-04 15:03 | 40.76720 | -3.56170 | 5492 ft | 205 kts | 183° |
| 2026-05-04 15:03 | 40.75301 | -3.56146 | 5467 ft | 204 kts | 184° |
| 2026-05-04 15:03 | 40.73879 | -3.56122 | 5487 ft | 201 kts | 184° |
| 2026-05-04 15:04 | 40.72531 | -3.56098 | 5466 ft | 186 kts | 184° |
| 2026-05-04 15:04 | 40.71294 | -3.56078 | 5496 ft | 169 kts | 184° |
| 2026-05-04 15:04 | 40.70150 | -3.56070 | 5429 ft | 161 kts | 185° |
| 2026-05-04 15:04 | 40.69037 | -3.56075 | 5214 ft | 159 kts | 186° |
| 2026-05-04 15:05 | 40.67935 | -3.56070 | 4978 ft | 155 kts | 184° |
| 2026-05-04 15:05 | 40.66899 | -3.56058 | 4768 ft | 143 kts | 184° |
| 2026-05-04 15:05 | 40.65934 | -3.56048 | 4563 ft | 136 kts | 186° |
| 2026-05-04 15:05 | 40.64988 | -3.56044 | 4383 ft | 137 kts | 184° |
| 2026-05-04 15:06 | 40.64031 | -3.56036 | 4212 ft | 137 kts | 184° |
| 2026-05-04 15:06 | 40.63080 | -3.56026 | 4014 ft | 136 kts | 186° |
| 2026-05-04 15:06 | 40.62136 | -3.56020 | 3826 ft | 135 kts | 186° |
| 2026-05-04 15:07 | 40.60289 | -3.56004 | 3461 ft | 129 kts | 185° |
| 2026-05-04 15:07 | 40.59397 | -3.55996 | 3275 ft | 127 kts | 185° |
| 2026-05-04 15:07 | 40.58519 | -3.55990 | 3103 ft | 126 kts | 185° |
| 2026-05-04 15:07 | 40.57642 | -3.55984 | 2927 ft | 127 kts | 184° |
| 2026-05-04 15:08 | 40.56758 | -3.55974 | 2760 ft | 127 kts | 185° |
| 2026-05-04 15:08 | 40.55877 | -3.55955 | 2600 ft | 126 kts | 185° |
| 2026-05-04 15:08 | 40.55010 | -3.55952 | 2408 ft | 124 kts | 185° |
| 2026-05-04 15:08 | 40.54146 | -3.55954 | 2284 ft | 125 kts | 185° |
| 2026-05-04 15:09 | 40.53265 | -3.55939 | 2091 ft | 125 kts | 184° |
| 2026-05-04 15:09 | 40.52408 | -3.55930 | 1962 ft | 121 kts | 185° |
| 2026-05-04 15:09 | 40.51698 | -3.55929 | 1956 ft | 78 kts | 178° |
| 2026-05-04 15:10 | 40.51092 | -3.55942 | 1961 ft | 32 kts | 193° |
| 2026-05-04 15:10 | 40.50906 | -3.56039 | 1965 ft | 26 kts | 208° |
| 2026-05-04 15:10 | 40.50614 | -3.56149 | 1967 ft | 21 kts | 180° |
| 2026-05-04 15:11 | 40.50462 | -3.56149 | 1967 ft | 22 kts | 179° |
| 2026-05-04 15:11 | 40.50299 | -3.56148 | 1964 ft | 25 kts | 180° |
| 2026-05-04 15:11 | 40.50125 | -3.56145 | 1962 ft | 26 kts | 180° |
| 2026-05-04 15:11 | 40.49945 | -3.56145 | 1962 ft | 26 kts | 180° |
| 2026-05-04 15:12 | 40.49761 | -3.56143 | 1962 ft | 27 kts | 179° |
| 2026-05-04 15:12 | 40.49572 | -3.56143 | 1963 ft | 27 kts | 180° |
| 2026-05-04 15:12 | 40.49382 | -3.56143 | 1963 ft | 28 kts | 179° |
| 2026-05-04 15:12 | 40.49188 | -3.56140 | 1962 ft | 28 kts | 179° |
| 2026-05-04 15:13 | 40.48989 | -3.56138 | 1963 ft | 29 kts | 179° |
| 2026-05-04 15:13 | 40.48819 | -3.56138 | 1963 ft | 18 kts | 182° |
| 2026-05-04 15:13 | 40.48769 | -3.56229 | 1965 ft | 12 kts | 264° |
| 2026-05-04 15:13 | 40.48768 | -3.56330 | 1968 ft | 11 kts | 270° |
| 2026-05-04 15:14 | 40.48768 | -3.56452 | 1975 ft | 16 kts | 269° |
| 2026-05-04 15:14 | 40.48766 | -3.56619 | 1980 ft | 20 kts | 270° |
| 2026-05-04 15:14 | 40.48765 | -3.56822 | 1983 ft | 22 kts | 269° |
| 2026-05-04 15:14 | 40.48765 | -3.57018 | 1987 ft | 21 kts | 270° |
| 2026-05-04 15:15 | 40.48764 | -3.57202 | 1990 ft | 20 kts | 269° |
| 2026-05-04 15:15 | 40.48764 | -3.57376 | 1991 ft | 18 kts | 270° |
| 2026-05-04 15:15 | 40.48763 | -3.57536 | 1994 ft | 17 kts | 270° |
| 2026-05-04 15:16 | 40.48762 | -3.57844 | 2000 ft | 15 kts | 270° |
| 2026-05-04 15:16 | 40.48711 | -3.57923 | 2001 ft | 11 kts | 193° |
| 2026-05-04 15:16 | 40.48533 | -3.57874 | 1998 ft | 17 kts | 152° |
| 2026-05-04 15:17 | 40.48413 | -3.57784 | 1997 ft | 21 kts | 147° |
| 2026-05-04 15:17 | 40.48172 | -3.57549 | 2002 ft | 22 kts | 142° |
| 2026-05-04 15:17 | 40.48051 | -3.57426 | 2004 ft | 22 kts | 142° |
| 2026-05-04 15:18 | 40.47927 | -3.57300 | 2005 ft | 23 kts | 142° |
| 2026-05-04 15:18 | 40.47790 | -3.57161 | 2001 ft | 27 kts | 142° |
| 2026-05-04 15:18 | 40.47633 | -3.57002 | 1999 ft | 30 kts | 142° |
| 2026-05-04 15:19 | 40.47307 | -3.56669 | 1994 ft | 26 kts | 142° |
| 2026-05-04 15:19 | 40.47148 | -3.56514 | 1987 ft | 30 kts | 149° |
| 2026-05-04 15:19 | 40.46719 | -3.56470 | 1978 ft | 33 kts | 185° |
| 2026-05-04 15:20 | 40.46497 | -3.56488 | 1976 ft | 27 kts | 183° |
| 2026-05-04 15:20 | 40.46327 | -3.56502 | 1976 ft | 22 kts | 184° |
| 2026-05-04 15:20 | 40.46169 | -3.56513 | 1977 ft | 23 kts | 184° |
| 2026-05-04 15:20 | 40.46007 | -3.56526 | 1976 ft | 24 kts | 183° |
| 2026-05-04 15:21 | 40.45885 | -3.56535 | 1976 ft | 15 kts | 184° |
| 2026-05-04 15:21 | 40.45812 | -3.56604 | 1980 ft | 14 kts | 253° |
| 2026-05-04 15:21 | 40.45765 | -3.56855 | 1978 ft | 15 kts | 226° |
| 2026-05-04 15:22 | 40.45705 | -3.56931 | 1981 ft | 7 kts | 217° |
| 2026-05-04 15:22 | 40.45668 | -3.56923 | 1980 ft | 6 kts | 138° |
| 2026-05-04 15:22 | 40.45637 | -3.56881 | 1979 ft | 0 kts | 134° |